< < Back
Terminal Aerodrome Forecast


Current Version              Previous Versions:   1  2  3  4  5  6  7  8  9  

Terminal Aerodrome Forecast

938
FTUS42 KMLB 080852 AAA
TAFMCO
TAF AMD
KMCO 080852Z 0809/0906 26005KT P6SM SKC
     FM081500 26012KT P6SM FEW040 SCT250
     FM081800 25017G22KT P6SM SCT040 SCT250
     FM090000 25015G20KT P6SM VCSH BKN040=

Latest METAR

176
SAUS70 KWBC 081400 RRE
MTRMCO
METAR KMCO 081353Z 24006KT 10SM SCT300 09/04 A3009 RMK AO2 SLP189
T00890039


USA.gov is the U.S. government's official web portal to all federal, state and local government web resources and services.